createdAt,value
2022-09-20T00:02:02.391Z,97.88
2022-09-20T00:04:36.532Z,97.75
2022-09-20T00:07:13.220Z,97.93
2022-09-20T00:09:56.733Z,97.96
2022-09-20T00:12:29.316Z,97.89
2022-09-20T00:15:07.393Z,98.11
2022-09-20T00:17:39.515Z,98.48
2022-09-20T00:20:13.465Z,98.02
2022-09-20T00:22:49.701Z,98.34
2022-09-20T00:25:23.145Z,98.12
2022-09-20T00:28:14.014Z,98.24
2022-09-20T00:30:44.809Z,98.49
2022-09-20T00:33:23.982Z,98.60
2022-09-20T00:36:00.612Z,98.70
2022-09-20T00:38:31.172Z,99.16
2022-09-20T00:41:07.662Z,99.17
2022-09-20T00:43:56.214Z,99.39
2022-09-20T00:46:42.496Z,99.44
2022-09-20T00:49:28.933Z,99.57
2022-09-20T00:52:05.118Z,99.33
2022-09-20T00:54:42.803Z,99.56
2022-09-20T00:57:29.867Z,99.65
2022-09-20T01:00:18.103Z,99.61
2022-09-20T01:02:58.370Z,99.92
2022-09-20T01:05:42.910Z,99.81
2022-09-20T01:08:18.625Z,99.90
2022-09-20T01:10:52.049Z,99.98
2022-09-20T01:13:40.135Z,99.96
2022-09-20T01:16:22.849Z,100.00
2022-09-20T01:19:16.343Z,100.00
2022-09-20T01:22:20.623Z,100.00
2022-09-20T01:25:31.032Z,100.00
2022-09-20T01:28:07.692Z,100.00
2022-09-20T01:30:59.280Z,100.00
2022-09-20T01:33:55.102Z,100.00
2022-09-20T01:36:53.845Z,100.00
2022-09-20T01:39:55.935Z,100.00
2022-09-20T01:42:34.494Z,100.00
2022-09-20T01:45:32.044Z,100.00
2022-09-20T01:49:10.891Z,100.00
2022-09-20T01:52:24.886Z,100.00
2022-09-20T01:56:01.559Z,100.00
2022-09-20T01:59:24.615Z,100.00
2022-09-20T02:02:32.136Z,100.00
2022-09-20T02:05:41.162Z,100.00
2022-09-20T02:08:32.414Z,100.00
2022-09-20T02:11:23.766Z,100.00
2022-09-20T02:14:13.305Z,100.00
2022-09-20T02:17:10.564Z,100.00
2022-09-20T02:20:26.863Z,100.00
2022-09-20T02:23:40.084Z,100.00
2022-09-20T02:26:45.637Z,100.00
2022-09-20T02:30:14.437Z,100.00
2022-09-20T02:33:26.485Z,100.00
2022-09-20T02:36:23.933Z,100.00
2022-09-20T02:39:23.897Z,100.00
2022-09-20T02:42:13.443Z,100.00
2022-09-20T02:45:06.464Z,100.00
2022-09-20T02:47:43.374Z,100.00
2022-09-20T02:50:37.676Z,100.00
2022-09-20T02:53:31.563Z,100.00
2022-09-20T02:56:43.866Z,100.00
2022-09-20T02:59:48.554Z,100.00
2022-09-20T03:03:07.921Z,100.00
2022-09-20T03:06:03.396Z,100.00
2022-09-20T03:08:39.682Z,100.00
2022-09-20T03:11:51.630Z,100.00
2022-09-20T03:15:06.874Z,100.00
2022-09-20T03:18:12.634Z,100.00
2022-09-20T03:21:26.237Z,100.00
2022-09-20T03:24:45.562Z,100.00
2022-09-20T03:27:31.752Z,100.00
2022-09-20T03:30:29.991Z,100.00
2022-09-20T03:33:08.927Z,100.00
2022-09-20T03:36:07.011Z,100.00
2022-09-20T03:39:07.695Z,100.00
2022-09-20T03:42:08.795Z,100.00
2022-09-20T03:45:19.931Z,100.00
2022-09-20T03:48:31.554Z,100.00
2022-09-20T03:51:31.707Z,100.00
2022-09-20T03:54:53.678Z,100.00
2022-09-20T03:58:08.611Z,100.00
2022-09-20T04:01:26.983Z,100.00
2022-09-20T04:04:40.269Z,100.00
2022-09-20T04:07:21.087Z,100.00
2022-09-20T04:10:18.934Z,100.00
2022-09-20T04:13:40.036Z,100.00
2022-09-20T04:16:54.298Z,100.00
2022-09-20T04:19:45.840Z,100.00
2022-09-20T04:22:17.883Z,100.00
2022-09-20T04:25:20.055Z,100.00
2022-09-20T04:28:00.455Z,100.00
2022-09-20T04:30:33.857Z,100.00
2022-09-20T04:33:23.187Z,100.00
2022-09-20T04:36:31.262Z,100.00
2022-09-20T04:39:27.617Z,100.00
2022-09-20T04:42:30.172Z,100.00
2022-09-20T04:45:33.861Z,100.00
2022-09-20T04:48:43.840Z,100.00
2022-09-20T04:52:06.580Z,100.00
2022-09-20T04:55:11.789Z,100.00
2022-09-20T04:58:55.753Z,100.00
2022-09-20T05:02:01.694Z,100.00
2022-09-20T05:05:26.123Z,100.00
2022-09-20T05:09:04.305Z,100.00
2022-09-20T05:12:13.353Z,100.00
2022-09-20T05:15:31.417Z,100.00
2022-09-20T05:18:37.950Z,100.00
2022-09-20T05:22:04.404Z,100.00
2022-09-20T05:25:26.787Z,100.00
2022-09-20T05:28:28.373Z,100.00
2022-09-20T05:31:49.923Z,100.00
2022-09-20T05:35:13.142Z,100.00
2022-09-20T05:37:56.763Z,100.00
2022-09-20T05:40:56.481Z,100.00
2022-09-20T05:43:31.845Z,100.00
2022-09-20T05:46:26.353Z,100.00
2022-09-20T05:49:06.151Z,100.00
2022-09-20T05:52:07.442Z,100.00
2022-09-20T05:54:55.387Z,100.00
2022-09-20T05:57:43.737Z,100.00
2022-09-20T06:00:20.765Z,100.00
2022-09-20T06:03:12.537Z,100.00
2022-09-20T06:05:56.045Z,100.00
2022-09-20T06:08:24.457Z,100.00
2022-09-20T06:11:00.636Z,100.00
2022-09-20T06:13:34.964Z,100.00
2022-09-20T06:16:06.259Z,100.00
2022-09-20T06:18:38.818Z,100.00
2022-09-20T06:21:18.272Z,100.00
2022-09-20T06:23:51.800Z,100.00
2022-09-20T06:26:31.037Z,100.00
2022-09-20T06:29:12.078Z,100.00
2022-09-20T06:31:45.859Z,100.00
2022-09-20T06:34:16.814Z,100.00
2022-09-20T06:37:14.229Z,99.99
2022-09-20T06:40:20.031Z,99.86
2022-09-20T06:43:00.779Z,99.91
2022-09-20T06:45:32.453Z,99.89
2022-09-20T06:48:02.692Z,99.71
2022-09-20T06:50:34.253Z,99.58
2022-09-20T06:53:03.220Z,99.43
2022-09-20T06:55:37.651Z,99.80
2022-09-20T06:58:05.976Z,99.70
2022-09-20T07:00:34.244Z,99.75
2022-09-20T07:03:03.351Z,99.51
2022-09-20T07:05:37.498Z,99.58
2022-09-20T07:08:13.944Z,99.67
2022-09-20T07:10:43.710Z,99.28
2022-09-20T07:13:14.353Z,99.30
2022-09-20T07:15:43.177Z,99.51
2022-09-20T07:18:28.319Z,99.12
2022-09-20T07:21:06.543Z,98.97
2022-09-20T07:23:34.905Z,99.17
2022-09-20T07:26:03.737Z,99.19
2022-09-20T07:28:34.217Z,99.11
2022-09-20T07:31:02.367Z,98.72
2022-09-20T07:33:36.142Z,98.74
2022-09-20T07:36:07.058Z,98.76
2022-09-20T07:38:35.766Z,99.10
2022-09-20T07:41:04.351Z,98.87
2022-09-20T07:43:33.894Z,99.00
2022-09-20T07:46:07.920Z,98.58
2022-09-20T07:48:37.123Z,99.13
2022-09-20T07:51:09.080Z,99.02
2022-09-20T07:53:38.666Z,98.67
2022-09-20T07:56:10.880Z,98.58
2022-09-20T07:58:44.902Z,98.60
2022-09-20T08:01:16.022Z,98.25
2022-09-20T08:03:55.215Z,98.16
2022-09-20T08:06:27.130Z,98.32
2022-09-20T08:08:55.909Z,98.38
2022-09-20T08:11:31.487Z,98.16
2022-09-20T08:14:08.837Z,98.11
2022-09-20T08:16:50.878Z,98.15
2022-09-20T08:19:24.132Z,97.59
2022-09-20T08:21:57.184Z,98.03
2022-09-20T08:24:33.422Z,98.20
2022-09-20T08:27:05.321Z,97.48
2022-09-20T08:29:33.795Z,96.71
2022-09-20T08:32:04.580Z,96.38
2022-09-20T08:34:33.133Z,96.18
2022-09-20T08:37:04.101Z,95.71
2022-09-20T08:42:37.795Z,95.21
2022-09-20T08:45:34.526Z,94.86
2022-09-20T08:48:14.371Z,94.85
2022-09-20T08:50:43.303Z,93.98
2022-09-20T08:53:22.421Z,93.68
2022-09-20T08:55:59.488Z,94.22
2022-09-20T08:58:28.910Z,94.01
2022-09-20T09:00:59.045Z,93.26
2022-09-20T09:03:28.572Z,92.29
2022-09-20T09:05:59.648Z,92.73
2022-09-20T09:08:37.619Z,92.52
2022-09-20T09:11:13.113Z,91.04
2022-09-20T09:14:30.839Z,90.23
2022-09-20T09:17:02.352Z,90.67
2022-09-20T09:19:53.834Z,90.14
2022-09-20T09:22:40.339Z,88.86
2022-09-20T09:25:38.642Z,88.46
2022-09-20T09:28:07.598Z,88.77
2022-09-20T09:30:37.817Z,88.74
2022-09-20T09:33:34.214Z,88.34
2022-09-20T09:36:17.483Z,87.54
2022-09-20T09:38:48.361Z,87.28
2022-09-20T09:41:35.603Z,87.55
2022-09-20T09:44:19.254Z,86.35
2022-09-20T09:46:56.815Z,86.59
2022-09-20T09:49:34.340Z,87.11
2022-09-20T09:52:25.306Z,86.48
2022-09-20T09:55:04.338Z,86.16
2022-09-20T09:58:09.405Z,86.50
2022-09-20T10:00:54.846Z,85.56
2022-09-20T10:03:50.068Z,84.80
2022-09-20T10:06:32.904Z,84.25
2022-09-20T10:09:25.991Z,85.33
2022-09-20T10:12:11.568Z,84.36
2022-09-20T10:14:58.471Z,83.05
2022-09-20T10:17:47.178Z,83.05
2022-09-20T10:20:37.641Z,82.48
2022-09-20T10:23:45.114Z,82.35
2022-09-20T10:26:28.088Z,81.52
2022-09-20T10:29:30.174Z,81.71
2022-09-20T10:32:15.091Z,79.80
2022-09-20T10:35:16.363Z,79.19
2022-09-20T10:38:28.404Z,80.31
2022-09-20T10:41:32.142Z,79.80
2022-09-20T10:44:19.412Z,78.99
2022-09-20T10:47:07.663Z,78.50
2022-09-20T10:49:50.853Z,76.81
2022-09-20T10:52:35.302Z,77.23
2022-09-20T10:55:34.608Z,76.44
2022-09-20T10:58:46.246Z,76.75
2022-09-20T11:01:56.278Z,76.51
2022-09-20T11:04:34.106Z,76.48
2022-09-20T11:07:29.506Z,75.36
2022-09-20T11:10:14.294Z,74.97
2022-09-20T11:12:59.994Z,75.01
2022-09-20T11:15:45.895Z,74.14
2022-09-20T11:18:34.541Z,70.58
2022-09-20T11:21:14.508Z,70.50
2022-09-20T11:23:45.884Z,70.74
2022-09-20T11:26:17.193Z,71.50
2022-09-20T11:28:54.222Z,70.94
2022-09-20T11:31:37.700Z,70.08
2022-09-20T11:34:17.229Z,69.00
2022-09-20T11:36:50.539Z,67.40
2022-09-20T11:39:36.911Z,68.02
2022-09-20T11:42:14.617Z,67.40
2022-09-20T11:44:43.598Z,66.36
2022-09-20T11:47:42.972Z,66.12
2022-09-20T11:51:05.588Z,65.03
2022-09-20T11:54:16.224Z,65.13
2022-09-20T11:57:00.373Z,63.87
2022-09-20T11:59:44.515Z,62.81
2022-09-20T12:02:30.087Z,61.23
2022-09-20T12:05:24.449Z,61.50
2022-09-20T12:07:56.064Z,60.74
2022-09-20T12:10:40.843Z,60.25
2022-09-20T12:13:26.069Z,59.54
2022-09-20T12:16:10.408Z,58.76
2022-09-20T12:19:03.529Z,58.78
2022-09-20T12:22:01.327Z,60.24
2022-09-20T12:24:44.494Z,58.55
2022-09-20T12:27:29.544Z,57.00
2022-09-20T12:30:19.222Z,56.67
2022-09-20T12:32:57.928Z,56.78
2022-09-20T12:35:51.288Z,55.53
2022-09-20T12:38:33.442Z,56.64
2022-09-20T12:41:13.450Z,56.65
2022-09-20T12:43:56.903Z,57.10
2022-09-20T12:46:37.132Z,57.37
2022-09-20T12:49:54.208Z,55.70
2022-09-20T12:53:09.284Z,56.41
2022-09-20T12:56:05.462Z,56.19
2022-09-20T12:58:48.714Z,56.68
2022-09-20T13:01:17.997Z,57.29
2022-09-20T13:03:49.554Z,57.95
2022-09-20T13:06:19.451Z,58.70
2022-09-20T13:09:09.016Z,56.73
2022-09-20T13:11:45.212Z,55.50
2022-09-20T13:14:32.974Z,56.00
2022-09-20T13:17:17.022Z,55.80
2022-09-20T13:19:54.946Z,55.69
2022-09-20T13:22:45.803Z,55.20
2022-09-20T13:25:16.774Z,53.78
2022-09-20T13:28:10.697Z,54.95
2022-09-20T13:30:42.206Z,55.17
2022-09-20T13:33:24.798Z,55.12
2022-09-20T13:36:00.339Z,55.47
2022-09-20T13:38:32.982Z,59.73
2022-09-20T13:41:09.928Z,61.94
2022-09-20T13:43:44.254Z,63.42
2022-09-20T13:46:30.842Z,65.14
2022-09-20T13:49:23.226Z,66.01
2022-09-20T13:51:52.324Z,68.88
2022-09-20T13:54:32.306Z,70.98
2022-09-20T13:57:13.656Z,72.60
2022-09-20T13:59:54.310Z,74.07
2022-09-20T14:02:35.747Z,75.32
2022-09-20T14:05:15.642Z,75.05
2022-09-20T14:07:46.491Z,74.93
2022-09-20T14:10:45.350Z,74.28
2022-09-20T14:13:18.693Z,74.82
2022-09-20T14:15:55.487Z,75.02
2022-09-20T14:18:25.007Z,75.89
2022-09-20T14:20:55.602Z,76.17
2022-09-20T14:23:37.875Z,76.87
2022-09-20T14:26:28.173Z,77.32
2022-09-20T14:28:56.776Z,77.08
2022-09-20T14:31:39.360Z,76.87
2022-09-20T14:34:19.075Z,77.12
2022-09-20T14:37:17.941Z,76.55
2022-09-20T14:40:22.244Z,77.39
2022-09-20T14:43:06.921Z,78.36
2022-09-20T14:45:43.275Z,78.92
2022-09-20T14:48:11.823Z,79.78
2022-09-20T14:50:43.491Z,80.62
2022-09-20T14:53:26.967Z,81.19
2022-09-20T14:56:04.528Z,81.28
2022-09-20T14:59:15.234Z,81.89
2022-09-20T15:02:11.273Z,82.57
2022-09-20T15:04:52.116Z,82.77
2022-09-20T15:07:25.268Z,83.49
2022-09-20T15:09:55.812Z,82.86
2022-09-20T15:12:24.184Z,83.15
2022-09-20T15:14:52.524Z,83.39
2022-09-20T15:17:23.662Z,83.47
2022-09-20T15:19:56.553Z,83.70
2022-09-20T15:22:30.306Z,83.68
2022-09-20T15:25:01.646Z,84.46
2022-09-20T15:27:33.978Z,84.41
2022-09-20T15:30:17.737Z,83.95
2022-09-20T15:33:02.244Z,84.44
2022-09-20T15:35:36.355Z,84.15
2022-09-20T15:38:11.495Z,84.25
2022-09-20T15:40:45.863Z,84.27
2022-09-20T15:43:20.898Z,84.35
2022-09-20T15:45:56.668Z,84.31
2022-09-20T15:48:27.293Z,84.52
2022-09-20T15:51:06.913Z,84.22
2022-09-20T15:54:01.579Z,84.53
2022-09-20T15:56:36.159Z,84.63
2022-09-20T15:59:07.276Z,84.44
2022-09-20T16:01:40.070Z,84.53
2022-09-20T16:04:11.300Z,84.70
2022-09-20T16:06:41.593Z,84.50
2022-09-20T16:09:10.873Z,84.15
2022-09-20T16:11:40.108Z,84.77
2022-09-20T16:14:09.088Z,84.44
2022-09-20T16:16:40.462Z,84.44
2022-09-20T16:19:18.568Z,84.84
2022-09-20T16:21:58.980Z,84.53
2022-09-20T16:24:31.589Z,84.52
2022-09-20T16:27:06.465Z,84.58
2022-09-20T16:29:53.000Z,84.86
2022-09-20T16:32:27.491Z,84.78
2022-09-20T16:34:56.229Z,84.95
2022-09-20T16:37:27.112Z,84.92
2022-09-20T16:39:59.147Z,85.68
2022-09-20T16:42:27.672Z,85.37
2022-09-20T16:44:56.195Z,85.75
2022-09-20T16:47:28.256Z,85.80
2022-09-20T16:50:01.078Z,85.99
2022-09-20T16:52:32.410Z,85.78
2022-09-20T16:55:05.636Z,86.13
2022-09-20T16:57:34.293Z,86.36
2022-09-20T17:00:04.755Z,85.85
2022-09-20T17:03:17.473Z,86.07
2022-09-20T17:06:55.291Z,86.27
2022-09-20T17:10:04.377Z,86.40
2022-09-20T17:13:26.024Z,86.64
2022-09-20T17:16:27.740Z,86.73
2022-09-20T17:19:19.426Z,86.83
2022-09-20T17:22:37.922Z,87.26
2022-09-20T17:25:46.846Z,86.83
2022-09-20T17:28:58.504Z,87.08
2022-09-20T17:31:43.176Z,87.48
2022-09-20T17:34:22.299Z,87.30
2022-09-20T17:37:39.182Z,87.70
2022-09-20T17:40:38.955Z,87.71
2022-09-20T17:44:11.793Z,87.59
2022-09-20T17:47:10.752Z,87.60
2022-09-20T17:53:22.992Z,88.17
2022-09-20T17:56:11.130Z,88.21
2022-09-20T17:59:04.989Z,88.02
2022-09-20T18:01:43.178Z,88.21
2022-09-20T18:04:25.533Z,88.28
2022-09-20T18:06:58.588Z,88.45
2022-09-20T18:09:28.991Z,88.63
2022-09-20T18:11:57.702Z,88.46
2022-09-20T18:14:27.909Z,88.62
2022-09-20T18:17:01.493Z,88.93
2022-09-20T18:19:36.433Z,88.66
2022-09-20T18:22:16.404Z,88.92
2022-09-20T18:24:50.125Z,89.20
2022-09-20T18:27:27.460Z,89.21
2022-09-20T18:29:59.101Z,89.19
2022-09-20T18:32:54.379Z,89.53
2022-09-20T18:35:34.344Z,89.49
2022-09-20T18:38:05.064Z,89.39
2022-09-20T18:40:37.403Z,89.30
2022-09-20T18:43:08.522Z,89.68
2022-09-20T18:45:36.927Z,89.94
2022-09-20T18:48:07.785Z,90.03
2022-09-20T18:50:36.338Z,90.16
2022-09-20T18:53:04.978Z,90.15
2022-09-20T18:55:35.077Z,90.20
2022-09-20T18:58:06.672Z,90.55
2022-09-20T19:00:35.728Z,90.48
2022-09-20T19:03:17.052Z,90.44
2022-09-20T19:05:52.250Z,90.26
2022-09-20T19:08:42.868Z,90.67
2022-09-20T19:11:37.541Z,90.62
2022-09-20T19:14:18.898Z,91.13
2022-09-20T19:16:50.583Z,90.78
2022-09-20T19:19:57.688Z,91.06
2022-09-20T19:22:27.520Z,90.98
2022-09-20T19:25:14.147Z,90.90
2022-09-20T19:27:42.831Z,90.91
2022-09-20T19:30:15.484Z,90.98
2022-09-20T19:32:47.378Z,90.99
2022-09-20T19:35:22.599Z,90.85
2022-09-20T19:38:15.678Z,90.87
2022-09-20T19:40:59.143Z,90.85
2022-09-20T19:43:38.080Z,91.29
2022-09-20T19:46:14.122Z,90.64
2022-09-20T19:49:34.298Z,90.76
2022-09-20T19:52:06.840Z,90.85
2022-09-20T19:54:36.902Z,90.51
2022-09-20T19:57:10.086Z,90.72
2022-09-20T19:59:38.858Z,90.81
2022-09-20T20:02:10.282Z,90.58
2022-09-20T20:04:41.138Z,90.68
2022-09-20T20:07:29.241Z,90.82
2022-09-20T20:10:20.924Z,90.35
2022-09-20T20:13:50.879Z,90.44
2022-09-20T20:16:30.848Z,90.32
2022-09-20T20:19:18.463Z,90.26
2022-09-20T20:21:59.166Z,90.42
2022-09-20T20:24:48.960Z,90.85
2022-09-20T20:27:18.564Z,90.64
2022-09-20T20:30:04.018Z,90.78
2022-09-20T20:32:43.076Z,90.96
2022-09-20T20:35:21.801Z,90.81
2022-09-20T20:37:58.890Z,90.98
2022-09-20T20:40:39.905Z,91.12
2022-09-20T20:43:15.737Z,91.09
2022-09-20T20:45:50.798Z,91.27
2022-09-20T20:48:21.894Z,91.22
2022-09-20T20:51:08.327Z,91.48
2022-09-20T20:53:47.366Z,91.50
2022-09-20T20:56:26.523Z,91.60
2022-09-20T20:59:02.365Z,91.64
2022-09-20T21:01:54.841Z,91.79
2022-09-20T21:04:27.809Z,91.82
2022-09-20T21:06:56.302Z,92.10
2022-09-20T21:09:25.300Z,92.31
2022-09-20T21:11:53.969Z,92.32
2022-09-20T21:14:22.395Z,92.30
2022-09-20T21:16:52.190Z,92.03
2022-09-20T21:19:23.199Z,92.02
2022-09-20T21:21:54.292Z,92.20
2022-09-20T21:24:28.367Z,92.23
2022-09-20T21:26:56.792Z,92.10
2022-09-20T21:29:25.206Z,92.30
2022-09-20T21:31:56.483Z,92.44
2022-09-20T21:34:27.932Z,92.53
2022-09-20T21:36:57.523Z,92.45
2022-09-20T21:39:28.925Z,92.69
2022-09-20T21:41:57.778Z,92.59
2022-09-20T21:44:29.055Z,92.44
2022-09-20T21:46:57.929Z,93.09
2022-09-20T21:49:26.168Z,92.92
2022-09-20T21:51:54.761Z,93.00
2022-09-20T21:54:28.950Z,92.88
2022-09-20T21:57:02.007Z,92.85
2022-09-20T21:59:33.885Z,93.16
2022-09-20T22:02:03.492Z,93.04
2022-09-20T22:04:35.620Z,93.24
2022-09-20T22:07:04.607Z,93.00
2022-09-20T22:09:35.837Z,92.97
2022-09-20T22:12:04.031Z,93.06
2022-09-20T22:14:38.464Z,93.09
2022-09-20T22:17:06.924Z,92.76
2022-09-20T22:19:38.132Z,93.04
2022-09-20T22:22:07.324Z,92.96
2022-09-20T22:24:35.877Z,93.03
2022-09-20T22:27:04.346Z,93.12
2022-09-20T22:29:32.772Z,93.27
2022-09-20T22:32:01.504Z,93.06
2022-09-20T22:34:32.595Z,93.19
2022-09-20T22:37:01.088Z,93.23
2022-09-20T22:39:29.824Z,93.25
2022-09-20T22:41:58.574Z,93.30
2022-09-20T22:44:27.066Z,93.43
2022-09-20T22:46:55.486Z,93.19
2022-09-20T22:49:23.679Z,93.31
2022-09-20T22:51:51.848Z,93.50
2022-09-20T22:54:20.630Z,93.17
2022-09-20T22:56:51.515Z,93.42
2022-09-20T22:59:22.458Z,93.57
2022-09-20T23:01:50.774Z,93.62
2022-09-20T23:04:23.723Z,93.77
2022-09-20T23:06:59.021Z,93.56
2022-09-20T23:09:30.185Z,93.87
2022-09-20T23:11:59.006Z,93.80
2022-09-20T23:14:35.678Z,94.02
2022-09-20T23:17:07.160Z,94.00
2022-09-20T23:19:35.475Z,94.22
2022-09-20T23:22:06.892Z,94.15
2022-09-20T23:24:36.046Z,94.62
2022-09-20T23:27:04.865Z,94.17
2022-09-20T23:29:34.010Z,94.23
2022-09-20T23:32:02.873Z,94.39
2022-09-20T23:34:31.245Z,94.32
2022-09-20T23:37:00.425Z,94.57
2022-09-20T23:39:31.562Z,94.50
2022-09-20T23:42:02.783Z,94.62
2022-09-20T23:44:34.420Z,94.49
2022-09-20T23:47:02.639Z,94.63
2022-09-20T23:49:32.227Z,94.76
2022-09-20T23:52:00.602Z,94.93
2022-09-20T23:54:30.350Z,95.09
2022-09-20T23:56:58.816Z,94.61
2022-09-20T23:59:27.145Z,94.98
